Time;durP1;ratioP1;P1;durP2;ratioP2;P2;SDS_P1;SDS_P2;PMS_P1;PMS_P2;Temp;Humidity;BMP_temperature;BMP_pressure;BME280_temperature;BME280_humidity;BME280_pressure;Samples;Min_cycle;Max_cycle;Signal;HPM_P1;HPM_P2
2023/01/02 00:01:03;;;;;;;;;;;;;;;6.07;69.83;100148.94;5121334;27;2240;-80
2023/01/02 00:03:29;;;;;;;;;;;;;;;6.13;69.24;100140.13;5115126;28;2038;-80
2023/01/02 00:05:56;;;;;;;;;;;;;;;6.13;69.57;100144.66;5128870;27;2119;-80
2023/01/02 00:08:23;;;;;;;;;;;;;;;6.10;69.57;100145.88;5133744;27;2267;-79
2023/01/02 00:10:49;;;;;;;;;;;;;;;6.05;70.03;100140.28;5119475;27;2214;-81
2023/01/02 00:13:16;;;;;;;;;;;;;;;6.09;69.63;100138.06;5129628;27;3822;-80
2023/01/02 00:15:42;;;;;;;;;;;;;;;6.00;69.57;100124.03;5118071;27;2399;-81
2023/01/02 00:18:09;;;;;;;;;;;;;;;6.06;69.77;100141.97;5117008;27;2160;-81
2023/01/02 00:20:35;;;;;;;;;;;;;;;6.00;69.84;100136.56;5132157;27;1887;-79
2023/01/02 00:23:02;;;;;;;;;;;;;;;6.03;69.87;100134.34;5127243;27;1344;-81
2023/01/02 00:25:28;;;;;;;;;;;;;;;6.04;69.61;100129.81;5119534;27;2411;-81
2023/01/02 00:27:55;;;;;;;;;;;;;;;6.02;69.70;100126.50;5126044;27;2203;-81
2023/01/02 00:30:21;;;;;;;;;;;;;;;6.07;69.51;100132.91;5121567;27;5174;-81
2023/01/02 00:32:48;;;;;;;;;;;;;;;6.09;69.73;100136.22;5132340;27;2010;-80
2023/01/02 00:35:15;;;;;;;;;;;;;;;6.10;69.64;100132.50;5127423;27;2242;-80
2023/01/02 00:37:41;;;;;;;;;;;;;;;6.09;69.83;100127.38;5125516;27;2120;-81
2023/01/02 00:40:12;;;;;;;;;;;;;;;6.07;69.64;100132.09;5128700;27;2141;-81
2023/01/02 00:42:38;;;;;;;;;;;;;;;6.04;69.78;100132.47;5122243;27;2389;-81
2023/01/02 00:45:05;;;;;;;;;;;;;;;6.05;69.66;100121.56;5125833;27;2114;-80
2023/01/02 00:47:32;;;;;;;;;;;;;;;6.01;69.79;100128.34;5131411;27;3892;-81
2023/01/02 00:49:58;;;;;;;;;;;;;;;6.03;69.92;100125.47;5125342;27;2393;-81
2023/01/02 00:52:25;;;;;;;;;;;;;;;5.96;69.97;100112.09;5121623;27;2107;-81
2023/01/02 00:54:51;;;;;;;;;;;;;;;6.00;70.08;100118.69;5131529;27;2341;-80
2023/01/02 00:57:18;;;;;;;;;;;;;;;5.97;70.04;100121.78;5119782;27;2020;-80
2023/01/02 00:59:44;;;;;;;;;;;;;;;5.99;70.01;100132.25;5122292;27;2196;-81
2023/01/02 01:02:11;;;;;;;;;;;;;;;5.94;70.09;100122.16;5126544;27;2077;-80
2023/01/02 01:04:37;;;;;;;;;;;;;;;5.89;70.24;100119.25;5131365;27;1460;-81
2023/01/02 01:07:04;;;;;;;;;;;;;;;5.95;70.25;100118.47;5133511;27;2003;-80
2023/01/02 01:09:30;;;;;;;;;;;;;;;5.84;70.14;100114.47;5122581;27;2069;-81
2023/01/02 01:11:57;;;;;;;;;;;;;;;5.76;70.76;100119.16;5134423;27;1907;-81
2023/01/02 01:14:23;;;;;;;;;;;;;;;5.95;70.27;100117.66;5121668;27;2275;-80
2023/01/02 01:16:50;;;;;;;;;;;;;;;5.95;69.99;100123.00;5127757;27;2305;-80
2023/01/02 01:19:17;;;;;;;;;;;;;;;5.97;70.18;100118.25;5121655;27;2143;-81
2023/01/02 01:21:44;;;;;;;;;;;;;;;5.89;70.18;100114.72;5130402;27;2137;-80
2023/01/02 01:24:10;;;;;;;;;;;;;;;5.80;70.33;100115.91;5130181;27;2384;-82
2023/01/02 01:26:37;;;;;;;;;;;;;;;5.83;70.23;100120.03;5115302;27;2334;-79
2023/01/02 01:29:04;;;;;;;;;;;;;;;5.85;70.11;100118.81;5132189;27;2223;-80
2023/01/02 01:31:30;;;;;;;;;;;;;;;5.90;70.29;100120.88;5120998;27;2204;-80
2023/01/02 01:33:57;;;;;;;;;;;;;;;5.70;70.95;100115.44;5121026;27;2246;-80
2023/01/02 01:36:23;;;;;;;;;;;;;;;5.79;70.55;100116.09;5124580;27;2050;-81
2023/01/02 01:38:50;;;;;;;;;;;;;;;5.88;70.08;100123.75;5121108;27;2156;-80
2023/01/02 01:41:17;;;;;;;;;;;;;;;5.79;70.38;100116.09;5125832;27;2190;-80
2023/01/02 01:43:43;;;;;;;;;;;;;;;5.70;70.96;100121.59;5119322;27;2161;-81
2023/01/02 01:46:10;;;;;;;;;;;;;;;5.75;70.67;100117.53;5126939;27;2247;-80
2023/01/02 01:48:37;;;;;;;;;;;;;;;5.79;70.69;100121.44;5122137;27;2195;-80
2023/01/02 01:51:03;;;;;;;;;;;;;;;5.76;70.44;100116.50;5120180;27;2259;-81
2023/01/02 01:53:30;;;;;;;;;;;;;;;5.81;70.31;100120.22;5122271;27;2333;-80
2023/01/02 01:55:56;;;;;;;;;;;;;;;5.83;70.28;100120.03;5120918;27;2132;-81
2023/01/02 01:58:23;;;;;;;;;;;;;;;5.74;70.56;100119.38;5132783;27;2511;-81
2023/01/02 02:00:49;;;;;;;;;;;;;;;5.79;70.42;100126.78;5119447;27;2231;-80
2023/01/02 02:03:16;;;;;;;;;;;;;;;5.81;70.36;100130.09;5124065;27;2144;-80
2023/01/02 02:05:43;;;;;;;;;;;;;;;5.79;70.40;100124.94;5125274;27;1620;-80
2023/01/02 02:08:09;;;;;;;;;;;;;;;5.82;70.22;100124.53;5124656;27;2162;-80
2023/01/02 02:10:36;;;;;;;;;;;;;;;5.81;70.30;100122.06;5115612;27;2277;-81
2023/01/02 02:13:02;;;;;;;;;;;;;;;5.88;69.98;100126.44;5126744;27;2158;-80
2023/01/02 02:15:29;;;;;;;;;;;;;;;5.83;70.37;100125.38;5119256;27;2183;-81
2023/01/02 02:17:55;;;;;;;;;;;;;;;5.82;70.14;100115.69;5125162;27;2078;-79
2023/01/02 02:20:22;;;;;;;;;;;;;;;5.81;70.46;100117.56;5129695;27;2162;-80
2023/01/02 02:22:48;;;;;;;;;;;;;;;5.70;70.65;100118.94;5121666;27;1786;-79
2023/01/02 02:25:15;;;;;;;;;;;;;;;5.75;70.64;100121.03;5125657;27;2419;-79
2023/01/02 02:27:41;;;;;;;;;;;;;;;5.77;70.58;100127.00;5126931;27;2189;-81
2023/01/02 02:30:08;;;;;;;;;;;;;;;5.75;70.45;100123.69;5118494;27;2144;-80
2023/01/02 02:32:34;;;;;;;;;;;;;;;5.82;70.23;100119.19;5117808;27;2351;-81
2023/01/02 02:35:01;;;;;;;;;;;;;;;5.85;70.12;100124.16;5120313;27;2346;-82
2023/01/02 02:37:28;;;;;;;;;;;;;;;5.77;70.54;100116.31;5126493;27;2336;-80
2023/01/02 02:39:54;;;;;;;;;;;;;;;5.78;70.65;100117.13;5122527;27;2144;-80
2023/01/02 02:42:21;;;;;;;;;;;;;;;5.72;70.71;100107.25;5116345;27;3330;-81
2023/01/02 02:44:47;;;;;;;;;;;;;;;5.78;70.48;100091.22;5124463;27;2450;-81
2023/01/02 02:47:14;;;;;;;;;;;;;;;5.86;70.00;100100.94;5116618;27;2314;-78
2023/01/02 02:49:40;;;;;;;;;;;;;;;5.77;70.40;100102.13;5114915;27;2184;-82
2023/01/02 02:52:07;;;;;;;;;;;;;;;5.83;70.32;100101.31;5129140;27;2396;-80
2023/01/02 02:54:33;;;;;;;;;;;;;;;5.84;70.47;100108.31;5130208;27;2152;-81
2023/01/02 02:57:00;;;;;;;;;;;;;;;5.87;70.25;100114.06;5119665;27;2130;-81
2023/01/02 02:59:26;;;;;;;;;;;;;;;5.76;70.59;100109.28;5117224;27;4919;-80
2023/01/02 03:01:53;;;;;;;;;;;;;;;5.81;70.24;100104.19;5124460;27;2193;-80
2023/01/02 03:04:20;;;;;;;;;;;;;;;5.77;70.67;100094.94;5124600;27;2133;-80
2023/01/02 03:06:46;;;;;;;;;;;;;;;5.77;70.55;100088.78;5120302;27;2102;-80
2023/01/02 03:09:13;;;;;;;;;;;;;;;5.75;70.59;100090.81;5122739;27;2078;-80
2023/01/02 03:11:39;;;;;;;;;;;;;;;5.81;70.16;100092.69;5121508;27;2049;-80
2023/01/02 03:14:06;;;;;;;;;;;;;;;5.75;70.56;100091.63;5122304;27;2753;-80
2023/01/02 03:16:32;;;;;;;;;;;;;;;5.83;70.14;100099.47;5128438;27;4057;-80
2023/01/02 03:18:59;;;;;;;;;;;;;;;5.77;70.45;100102.13;5116969;27;2488;-80
2023/01/02 03:21:25;;;;;;;;;;;;;;;5.80;70.39;100104.41;5125752;28;2144;-80
2023/01/02 03:23:52;;;;;;;;;;;;;;;5.79;70.44;100105.41;5121669;28;2217;-79
2023/01/02 03:26:18;;;;;;;;;;;;;;;5.72;70.75;100109.91;5127708;28;1967;-80
2023/01/02 03:28:45;;;;;;;;;;;;;;;5.77;70.46;100108.28;5120302;28;2189;-79
2023/01/02 03:31:11;;;;;;;;;;;;;;;5.81;70.41;100103.38;5121915;27;1642;-79
2023/01/02 03:33:38;;;;;;;;;;;;;;;5.76;70.54;100101.28;5119621;28;2192;-80
2023/01/02 03:36:04;;;;;;;;;;;;;;;5.66;70.75;100090.97;5122978;27;2236;-80
2023/01/02 03:38:31;;;;;;;;;;;;;;;5.70;70.83;100092.22;5122289;27;2340;-80
2023/01/02 03:40:58;;;;;;;;;;;;;;;5.68;70.67;100091.59;5121523;27;2086;-81
2023/01/02 03:43:24;;;;;;;;;;;;;;;5.66;70.90;100082.13;5124751;27;2063;-80
2023/01/02 03:45:51;;;;;;;;;;;;;;;5.68;70.60;100090.78;5120426;27;2204;-80
2023/01/02 03:48:17;;;;;;;;;;;;;;;5.73;70.65;100085.66;5127181;27;2307;-82
2023/01/02 03:50:44;;;;;;;;;;;;;;;5.72;70.39;100085.84;5120910;27;2059;-81
2023/01/02 03:53:10;;;;;;;;;;;;;;;5.65;70.75;100084.00;5121929;27;2168;-80
2023/01/02 03:55:37;;;;;;;;;;;;;;;5.62;71.03;100084.38;5128262;27;1982;-80
2023/01/02 03:58:03;;;;;;;;;;;;;;;5.72;70.65;100088.53;5118752;27;2203;-80
2023/01/02 04:00:30;;;;;;;;;;;;;;;5.64;70.83;100090.34;5120321;27;1976;-80
2023/01/02 04:02:56;;;;;;;;;;;;;;;5.69;70.65;100084.41;5125532;27;2119;-80
2023/01/02 04:05:23;;;;;;;;;;;;;;;5.63;70.58;100088.69;5120504;27;2246;-80
2023/01/02 04:07:49;;;;;;;;;;;;;;;5.61;70.93;100095.25;5117977;27;2033;-80
2023/01/02 04:10:16;;;;;;;;;;;;;;;5.65;70.96;100089.34;5123125;27;2192;-80
2023/01/02 04:12:43;;;;;;;;;;;;;;;5.74;70.41;100092.66;5122704;27;2331;-79
2023/01/02 04:15:09;;;;;;;;;;;;;;;5.60;70.88;100102.44;5128832;27;1979;-81
2023/01/02 04:17:36;;;;;;;;;;;;;;;5.63;70.85;100102.06;5116327;27;2207;-80
2023/01/02 04:20:02;;;;;;;;;;;;;;;5.64;70.96;100105.53;5130009;27;1923;-80
2023/01/02 04:22:29;;;;;;;;;;;;;;;5.66;70.68;100108.84;5124210;27;2111;-80
2023/01/02 04:24:56;;;;;;;;;;;;;;;5.73;70.63;100115.03;5132673;27;2097;-81
2023/01/02 04:27:22;;;;;;;;;;;;;;;5.68;70.81;100115.66;5116985;27;2264;-80
2023/01/02 04:29:49;;;;;;;;;;;;;;;5.58;71.15;100133.88;5117436;27;2292;-80
2023/01/02 04:32:15;;;;;;;;;;;;;;;5.62;70.83;100121.78;5127129;27;2116;-79
2023/01/02 04:34:42;;;;;;;;;;;;;;;5.63;70.73;100117.25;5119306;27;2370;-82
2023/01/02 04:37:08;;;;;;;;;;;;;;;5.60;70.95;100125.69;5119834;27;2128;-80
2023/01/02 04:39:35;;;;;;;;;;;;;;;5.64;70.76;100127.75;5127115;27;2253;-81
2023/01/02 04:42:01;;;;;;;;;;;;;;;5.68;70.61;100130.88;5121305;27;2215;-80
2023/01/02 04:44:28;;;;;;;;;;;;;;;5.68;70.76;100137.03;5122898;27;2087;-81
2023/01/02 04:46:54;;;;;;;;;;;;;;;5.69;70.45;100132.50;5125305;27;1963;-80
2023/01/02 04:49:21;;;;;;;;;;;;;;;5.61;70.96;100125.47;5124875;27;2280;-80
2023/01/02 04:51:48;;;;;;;;;;;;;;;5.59;70.95;100122.19;5128960;27;1978;-80
2023/01/02 04:54:14;;;;;;;;;;;;;;;5.64;70.68;100113.56;5127998;27;2533;-80
2023/01/02 04:56:41;;;;;;;;;;;;;;;5.77;70.38;100116.31;5121942;27;2095;-80
2023/01/02 04:59:07;;;;;;;;;;;;;;;5.65;70.70;100123.25;5126218;27;2291;-81
2023/01/02 05:01:34;;;;;;;;;;;;;;;5.61;70.66;100125.47;5118564;27;2266;-81
2023/01/02 05:04:00;;;;;;;;;;;;;;;5.67;70.64;100127.34;5119583;27;2181;-82
2023/01/02 05:06:27;;;;;;;;;;;;;;;5.68;70.55;100125.53;5121822;27;2170;-80
2023/01/02 05:08:53;;;;;;;;;;;;;;;5.65;70.68;100131.25;5120639;27;2106;-80
2023/01/02 05:11:20;;;;;;;;;;;;;;;5.75;70.31;100129.03;5116862;27;2125;-81
2023/01/02 05:13:47;;;;;;;;;;;;;;;5.69;70.67;100140.53;5119899;27;4521;-79
2023/01/02 05:16:13;;;;;;;;;;;;;;;5.74;70.47;100134.59;5120069;27;3594;-80
2023/01/02 05:18:40;;;;;;;;;;;;;;;5.68;70.53;100142.38;5115270;27;2066;-81
2023/01/02 05:21:06;;;;;;;;;;;;;;;5.66;70.56;100135.56;5123529;27;2152;-80
2023/01/02 05:23:52;;;;;;;;;;;;;;;5.64;70.58;100133.09;5126182;27;2080;-80
2023/01/02 05:26:18;;;;;;;;;;;;;;;5.63;70.71;100141.31;5125678;27;2185;-80
2023/01/02 05:28:45;;;;;;;;;;;;;;;5.65;70.77;100128.59;5121223;27;5071;-80
2023/01/02 05:31:11;;;;;;;;;;;;;;;5.64;70.77;100126.91;5120969;27;3831;-79
2023/01/02 05:33:38;;;;;;;;;;;;;;;5.54;70.90;100127.28;5126815;27;2344;-80
2023/01/02 05:36:04;;;;;;;;;;;;;;;5.55;70.97;100123.59;5122641;27;3897;-80
2023/01/02 05:38:31;;;;;;;;;;;;;;;5.73;70.59;100131.06;5119914;27;2083;-80
2023/01/02 05:40:58;;;;;;;;;;;;;;;5.56;70.89;100135.94;5120513;27;2172;-81
2023/01/02 05:43:24;;;;;;;;;;;;;;;5.59;70.78;100138.22;5122916;27;2768;-81
2023/01/02 05:45:51;;;;;;;;;;;;;;;5.57;70.76;100139.44;5118236;27;2309;-80
2023/01/02 05:48:17;;;;;;;;;;;;;;;5.67;70.63;100146.03;5122322;27;3766;-81
2023/01/02 05:50:44;;;;;;;;;;;;;;;5.66;70.42;100140.91;5123395;27;2176;-80
2023/01/02 05:53:11;;;;;;;;;;;;;;;5.63;70.58;100142.13;5122009;27;2118;-79
2023/01/02 05:55:37;;;;;;;;;;;;;;;5.60;70.81;100147.88;5121420;27;2014;-79
2023/01/02 05:58:04;;;;;;;;;;;;;;;5.52;71.04;100144.53;5128272;27;1939;-80
2023/01/02 06:00:31;;;;;;;;;;;;;;;5.59;70.97;100137.38;5118343;27;2137;-80
2023/01/02 06:02:57;;;;;;;;;;;;;;;5.57;70.94;100140.25;5127343;27;2473;-81
2023/01/02 06:05:24;;;;;;;;;;;;;;;5.67;70.62;100147.91;5120439;27;2382;-82
2023/01/02 06:07:50;;;;;;;;;;;;;;;5.59;70.67;100148.91;5122835;27;2190;-80
2023/01/02 06:10:17;;;;;;;;;;;;;;;5.55;70.97;100144.13;5121142;27;2184;-80
2023/01/02 06:12:43;;;;;;;;;;;;;;;5.59;70.97;100143.56;5121099;27;2018;-81
2023/01/02 06:15:10;;;;;;;;;;;;;;;5.61;70.84;100141.50;5119876;27;2239;-80
2023/01/02 06:17:37;;;;;;;;;;;;;;;5.51;71.08;100137.53;5120142;27;1940;-81
2023/01/02 06:20:03;;;;;;;;;;;;;;;5.42;71.17;100135.03;5123693;27;2380;-82
2023/01/02 06:22:30;;;;;;;;;;;;;;;5.42;71.49;100136.88;5126312;27;2070;-80
2023/01/02 06:24:56;;;;;;;;;;;;;;;5.60;70.62;100136.38;5124494;27;1573;-79
2023/01/02 06:27:23;;;;;;;;;;;;;;;5.56;71.00;100141.28;5122593;27;2225;-80
2023/01/02 06:29:49;;;;;;;;;;;;;;;5.44;71.25;100142.81;5118350;27;2110;-80
2023/01/02 06:32:16;;;;;;;;;;;;;;;5.43;71.27;100146.53;5118573;27;1709;-80
2023/01/02 06:34:42;;;;;;;;;;;;;;;5.54;70.97;100145.16;5139152;27;2046;-80
2023/01/02 06:37:09;;;;;;;;;;;;;;;5.60;70.90;100147.88;5123013;27;1930;-80
2023/01/02 06:39:36;;;;;;;;;;;;;;;5.53;70.83;100141.69;5121461;27;2172;-79
2023/01/02 06:42:02;;;;;;;;;;;;;;;5.58;70.93;100125.84;5122142;27;2091;-80
2023/01/02 06:44:29;;;;;;;;;;;;;;;5.44;71.29;100127.66;5122564;27;2123;-80
2023/01/02 06:46:55;;;;;;;;;;;;;;;5.51;71.21;100133.03;5123255;27;1956;-79
2023/01/02 06:49:22;;;;;;;;;;;;;;;5.50;71.12;100114.50;5115974;27;2761;-80
2023/01/02 06:51:48;;;;;;;;;;;;;;;5.53;70.69;100111.44;5125075;27;2486;-82
2023/01/02 06:54:15;;;;;;;;;;;;;;;5.44;71.44;100122.31;5126498;27;1098;-80
2023/01/02 06:56:41;;;;;;;;;;;;;;;5.51;71.02;100122.34;5122010;27;2375;-81
2023/01/02 06:59:08;;;;;;;;;;;;;;;5.54;70.93;100118.44;5119286;27;1949;-80
2023/01/02 07:01:35;;;;;;;;;;;;;;;5.56;70.69;100116.38;5121029;27;2645;-79
2023/01/02 07:04:01;;;;;;;;;;;;;;;5.55;70.84;100122.75;5128084;27;1477;-80
2023/01/02 07:06:28;;;;;;;;;;;;;;;5.49;71.14;100128.91;5125146;27;1570;-79
2023/01/02 07:08:54;;;;;;;;;;;;;;;5.54;70.72;100143.31;5128633;27;1774;-79
2023/01/02 07:11:21;;;;;;;;;;;;;;;5.67;70.36;100147.91;5123701;27;2715;-79
2023/01/02 07:13:47;;;;;;;;;;;;;;;5.58;70.62;100141.88;5129561;27;2079;-81
2023/01/02 07:16:14;;;;;;;;;;;;;;;5.50;71.10;100142.06;5126087;27;1968;-80
2023/01/02 07:18:40;;;;;;;;;;;;;;;5.60;70.62;100141.72;5123010;27;2190;-80
2023/01/02 07:21:07;;;;;;;;;;;;;;;5.61;70.57;100143.34;5118898;27;2329;-81
2023/01/02 07:23:33;;;;;;;;;;;;;;;5.64;70.47;100154.47;5118086;27;2934;-80
2023/01/02 07:26:00;;;;;;;;;;;;;;;5.57;70.69;100148.25;5117488;27;2539;-81
2023/01/02 07:28:26;;;;;;;;;;;;;;;5.53;70.90;100147.03;5116334;27;2844;-80
2023/01/02 07:30:53;;;;;;;;;;;;;;;5.61;70.64;100140.69;5118462;27;2529;-81
2023/01/02 07:33:19;;;;;;;;;;;;;;;5.65;70.66;100141.94;5115587;27;2512;-80
2023/01/02 07:35:46;;;;;;;;;;;;;;;5.65;70.52;100142.78;5113979;27;2164;-82
2023/01/02 07:38:13;;;;;;;;;;;;;;;5.57;70.78;100137.59;5119358;27;2238;-80
2023/01/02 07:40:39;;;;;;;;;;;;;;;5.60;70.54;100142.53;5118309;27;2241;-80
2023/01/02 07:43:06;;;;;;;;;;;;;;;5.54;70.94;100145.16;5115914;27;4615;-80
2023/01/02 07:45:33;;;;;;;;;;;;;;;5.70;70.41;100150.19;5119618;27;3867;-80
2023/01/02 07:47:59;;;;;;;;;;;;;;;5.55;70.86;100152.97;5120304;27;2135;-80
2023/01/02 07:50:26;;;;;;;;;;;;;;;5.55;71.15;100155.63;5118342;27;3533;-82
2023/01/02 07:52:52;;;;;;;;;;;;;;;5.55;70.73;100149.47;5119505;27;2078;-80
2023/01/02 07:55:19;;;;;;;;;;;;;;;5.66;70.50;100144.41;5121276;27;1983;-80
2023/01/02 07:57:45;;;;;;;;;;;;;;;5.58;70.59;100138.41;5114772;27;2148;-79
2023/01/02 08:00:12;;;;;;;;;;;;;;;5.53;70.92;100136.34;5116321;27;3950;-80
2023/01/02 08:02:39;;;;;;;;;;;;;;;5.49;70.86;100135.06;5145605;27;3746;-79
2023/01/02 08:05:05;;;;;;;;;;;;;;;5.54;71.10;100131.81;5115586;27;3888;-81
2023/01/02 08:07:32;;;;;;;;;;;;;;;5.64;70.46;100138.44;5122985;27;2105;-80
2023/01/02 08:09:58;;;;;;;;;;;;;;;5.48;71.08;100130.75;5120659;27;1971;-80
2023/01/02 08:12:25;;;;;;;;;;;;;;;5.52;71.06;100129.31;5120410;27;2015;-81
2023/01/02 08:14:51;;;;;;;;;;;;;;;5.60;70.60;100123.81;5118064;27;2832;-81
2023/01/02 08:17:18;;;;;;;;;;;;;;;5.60;70.63;100129.16;5119497;27;2386;-81
2023/01/02 08:19:44;;;;;;;;;;;;;;;5.47;71.01;100135.28;5121780;27;1903;-82
2023/01/02 08:22:11;;;;;;;;;;;;;;;5.51;71.13;100127.69;5127106;27;2006;-80
2023/01/02 08:24:37;;;;;;;;;;;;;;;5.58;70.83;100123.19;5121624;27;2096;-82
2023/01/02 08:27:04;;;;;;;;;;;;;;;5.44;71.07;100114.28;5126787;27;2024;-81
2023/01/02 08:29:30;;;;;;;;;;;;;;;5.54;70.86;100105.91;5123647;27;2128;-82
2023/01/02 08:31:57;;;;;;;;;;;;;;;5.52;70.88;100109.81;5126582;27;2066;-82
2023/01/02 08:34:24;;;;;;;;;;;;;;;5.53;70.94;100111.44;5127786;27;2512;-82
2023/01/02 08:36:51;;;;;;;;;;;;;;;5.47;70.86;100110.38;5131498;27;1987;-82
2023/01/02 08:39:17;;;;;;;;;;;;;;;5.55;70.77;100112.09;5125919;27;2256;-81
2023/01/02 08:41:44;;;;;;;;;;;;;;;5.51;71.04;100121.53;5123141;27;2024;-81
2023/01/02 08:44:10;;;;;;;;;;;;;;;5.54;70.92;100129.97;5121233;27;2172;-82
2023/01/02 08:46:37;;;;;;;;;;;;;;;5.43;71.05;100138.53;5126502;27;2160;-83
2023/01/02 08:49:03;;;;;;;;;;;;;;;5.45;71.01;100136.47;5122032;27;2273;-82
2023/01/02 08:51:30;;;;;;;;;;;;;;;5.56;70.67;100148.44;5126016;27;1916;-81
2023/01/02 08:53:56;;;;;;;;;;;;;;;5.37;71.42;100150.81;5123549;27;2193;-81
2023/01/02 08:56:23;;;;;;;;;;;;;;;5.42;71.31;100148.38;5122931;27;2325;-82
2023/01/02 08:58:50;;;;;;;;;;;;;;;5.44;71.20;100148.16;5124782;27;2019;-82
2023/01/02 09:01:17;;;;;;;;;;;;;;;5.50;70.95;100150.09;5125247;27;2047;-81
2023/01/02 09:03:43;;;;;;;;;;;;;;;5.59;70.60;100151.56;5123170;27;2361;-81
2023/01/02 09:06:10;;;;;;;;;;;;;;;5.53;70.64;100157.72;5124188;27;2010;-82
2023/01/02 09:08:36;;;;;;;;;;;;;;;5.43;71.07;100157.22;5129068;27;2015;-81
2023/01/02 09:11:03;;;;;;;;;;;;;;;5.56;70.75;100162.66;5123567;27;1928;-82
2023/01/02 09:13:29;;;;;;;;;;;;;;;5.51;70.80;100166.94;5117564;27;2118;-82
2023/01/02 09:15:56;;;;;;;;;;;;;;;5.62;70.36;100171.72;5122981;27;2040;-82
2023/01/02 09:18:22;;;;;;;;;;;;;;;5.57;70.74;100177.66;5128841;27;1392;-82
2023/01/02 09:20:49;;;;;;;;;;;;;;;5.49;71.06;100171.63;5126586;27;2077;-82
2023/01/02 09:23:15;;;;;;;;;;;;;;;5.52;70.76;100160.56;5122119;27;1916;-82
2023/01/02 09:25:42;;;;;;;;;;;;;;;5.53;70.65;100170.22;5121390;27;1525;-82
2023/01/02 09:28:09;;;;;;;;;;;;;;;5.54;70.60;100170.03;5121853;27;5137;-82
2023/01/02 09:30:35;;;;;;;;;;;;;;;5.48;71.01;100168.16;5126689;27;1955;-83
2023/01/02 09:33:02;;;;;;;;;;;;;;;5.52;71.08;100163.22;5124339;27;1288;-82
2023/01/02 09:35:29;;;;;;;;;;;;;;;5.56;70.55;100173.34;5126708;27;2361;-82
2023/01/02 09:37:55;;;;;;;;;;;;;;;5.54;70.71;100177.22;5123226;27;1581;-83
2023/01/02 09:40:22;;;;;;;;;;;;;;;5.53;70.83;100173.72;5122103;27;2114;-81
2023/01/02 09:42:48;;;;;;;;;;;;;;;5.45;70.83;100176.56;5124414;27;2383;-80
2023/01/02 09:45:15;;;;;;;;;;;;;;;5.49;70.87;100188.47;5125597;27;2134;-79
2023/01/02 09:47:41;;;;;;;;;;;;;;;5.49;71.00;100179.66;5125955;27;1931;-82
2023/01/02 09:50:09;;;;;;;;;;;;;;;5.54;70.63;100177.22;5124752;27;1472;-82
2023/01/02 09:52:35;;;;;;;;;;;;;;;5.44;71.03;100185.56;5130059;27;1345;-81
2023/01/02 09:55:02;;;;;;;;;;;;;;;5.52;70.73;100179.25;5127907;27;1679;-80
2023/01/02 09:57:29;;;;;;;;;;;;;;;5.55;70.71;100192.22;5121918;27;1971;-80
2023/01/02 09:59:55;;;;;;;;;;;;;;;5.51;70.84;100199.00;5150775;27;1807;-79
2023/01/02 10:02:22;;;;;;;;;;;;;;;5.37;71.32;100192.72;5127118;27;2076;-80
2023/01/02 10:04:48;;;;;;;;;;;;;;;5.42;71.27;100187.63;5115042;28;2015;-80
2023/01/02 10:07:15;;;;;;;;;;;;;;;5.51;70.71;100188.31;5118460;27;2567;-81
2023/01/02 10:09:41;;;;;;;;;;;;;;;5.47;70.78;100188.69;5125507;27;1908;-80
2023/01/02 10:12:08;;;;;;;;;;;;;;;5.53;70.65;100191.59;5124310;27;1961;-81
2023/01/02 10:14:34;;;;;;;;;;;;;;;5.39;70.98;100175.47;5120694;27;4433;-81
2023/01/02 10:17:01;;;;;;;;;;;;;;;5.38;71.37;100176.50;5120157;27;2944;-81
2023/01/02 10:19:27;;;;;;;;;;;;;;;5.36;71.21;100173.19;5124759;27;2023;-82
2023/01/02 10:21:55;;;;;;;;;;;;;;;5.43;71.13;100162.56;5125276;27;1975;-82
2023/01/02 10:24:22;;;;;;;;;;;;;;;5.31;71.41;100164.94;5117274;27;1278;-81
2023/01/02 10:26:49;;;;;;;;;;;;;;;5.41;71.17;100168.09;5118555;27;1456;-81
2023/01/02 10:29:15;;;;;;;;;;;;;;;5.43;71.10;100165.22;5121172;27;2011;-81
2023/01/02 10:31:42;;;;;;;;;;;;;;;5.32;71.43;100166.56;5115134;27;2025;-81
2023/01/02 10:34:08;;;;;;;;;;;;;;;5.31;71.54;100154.25;5128841;27;1557;-81
2023/01/02 10:36:35;;;;;;;;;;;;;;;5.32;71.35;100155.91;5126214;27;1910;-80
2023/01/02 10:39:02;;;;;;;;;;;;;;;5.37;71.00;100150.81;5130122;27;1028;-81
2023/01/02 10:41:28;;;;;;;;;;;;;;;5.38;71.03;100156.97;5124173;27;2026;-80
2023/01/02 10:43:55;;;;;;;;;;;;;;;5.30;71.54;100147.28;5126775;27;1943;-81
2023/01/02 10:46:21;;;;;;;;;;;;;;;5.45;71.14;100144.50;5128308;27;2038;-81
2023/01/02 10:48:48;;;;;;;;;;;;;;;5.35;71.18;100147.50;5122295;27;1204;-81
2023/01/02 10:51:14;;;;;;;;;;;;;;;5.40;71.04;100147.75;5124644;27;2101;-81
2023/01/02 10:53:41;;;;;;;;;;;;;;;5.39;71.00;100135.41;5127231;27;929;-81
2023/01/02 10:56:08;;;;;;;;;;;;;;;5.35;71.20;100142.16;5126932;27;1995;-81
2023/01/02 10:58:34;;;;;;;;;;;;;;;5.35;71.12;100149.34;5126106;27;2097;-81
2023/01/02 11:01:01;;;;;;;;;;;;;;;5.40;71.25;100147.75;5127887;27;1449;-81
2023/01/02 11:03:27;;;;;;;;;;;;;;;5.39;71.15;100143.44;5118616;27;1905;-82
2023/01/02 11:05:54;;;;;;;;;;;;;;;5.45;70.73;100134.63;5127827;27;2087;-81
2023/01/02 11:08:22;;;;;;;;;;;;;;;5.44;70.85;100132.16;5127489;27;2071;-80
2023/01/02 11:10:48;;;;;;;;;;;;;;;5.36;71.08;100135.00;5131636;27;1289;-81
2023/01/02 11:13:15;;;;;;;;;;;;;;;5.39;71.17;100139.94;5120827;27;2012;-82
2023/01/02 11:15:41;;;;;;;;;;;;;;;5.38;71.09;100143.63;5119273;27;1901;-82
2023/01/02 11:18:08;;;;;;;;;;;;;;;5.42;71.03;100152.91;5119470;27;2110;-80
2023/01/02 11:20:34;;;;;;;;;;;;;;;5.45;70.89;100152.50;5124730;27;1829;-81
2023/01/02 11:23:01;;;;;;;;;;;;;;;5.40;70.94;100152.25;5119364;27;2036;-79
2023/01/02 11:25:28;;;;;;;;;;;;;;;5.38;71.21;100143.63;5122098;28;1198;-81
2023/01/02 11:27:54;;;;;;;;;;;;;;;5.36;71.07;100138.47;5116270;28;2075;-80
2023/01/02 11:30:21;;;;;;;;;;;;;;;5.45;71.08;100136.47;5120271;27;2003;-81
2023/01/02 11:32:47;;;;;;;;;;;;;;;5.38;71.29;100125.78;5117920;28;1596;-81
2023/01/02 11:35:14;;;;;;;;;;;;;;;5.36;71.23;100122.47;5122740;28;1473;-82
2023/01/02 11:37:41;;;;;;;;;;;;;;;5.30;71.41;100133.94;5125219;28;1918;-83
2023/01/02 11:40:08;;;;;;;;;;;;;;;5.38;70.99;100135.59;5122482;27;2018;-81
2023/01/02 11:45:19;;;;;;;;;;;;;;;5.37;71.30;100147.31;5128168;27;1974;-83
2023/01/02 11:47:46;;;;;;;;;;;;;;;5.28;71.46;100137.81;5133020;28;1197;-83
2023/01/02 11:50:12;;;;;;;;;;;;;;;5.31;71.43;100142.75;5122653;27;2012;-82
2023/01/02 11:52:39;;;;;;;;;;;;;;;5.29;71.43;100132.25;5121814;27;2582;-83
2023/01/02 11:55:05;;;;;;;;;;;;;;;5.33;71.12;100136.22;5122959;28;1298;-82
2023/01/02 11:57:32;;;;;;;;;;;;;;;5.33;71.28;100136.22;5117635;27;2171;-82
2023/01/02 11:59:58;;;;;;;;;;;;;;;5.32;71.30;100141.72;5121775;27;2592;-82
2023/01/02 12:02:25;;;;;;;;;;;;;;;5.28;71.37;100137.81;5120049;27;1980;-82
2023/01/02 12:04:52;;;;;;;;;;;;;;;5.37;71.26;100144.66;5131180;27;2096;-82
2023/01/02 12:07:18;;;;;;;;;;;;;;;5.24;71.55;100142.72;5125292;27;1817;-82
2023/01/02 12:09:45;;;;;;;;;;;;;;;5.26;71.65;100138.00;5129645;27;2205;-81
2023/01/02 12:12:11;;;;;;;;;;;;;;;5.22;71.70;100128.72;5127678;27;1881;-80
2023/01/02 12:14:38;;;;;;;;;;;;;;;5.24;71.62;100129.38;5120797;27;2146;-80
2023/01/02 12:17:04;;;;;;;;;;;;;;;5.41;70.93;100129.88;5118310;27;1988;-80
2023/01/02 12:19:31;;;;;;;;;;;;;;;5.33;71.28;100130.03;5118875;27;1359;-79
2023/01/02 12:21:57;;;;;;;;;;;;;;;5.07;72.26;100128.00;5125734;27;2011;-82
2023/01/02 12:24:24;;;;;;;;;;;;;;;5.20;71.84;100126.25;5125298;27;2106;-82
2023/01/02 12:26:50;;;;;;;;;;;;;;;5.28;71.55;100122.59;5121595;27;2002;-81
2023/01/02 12:29:17;;;;;;;;;;;;;;;5.32;71.33;100123.03;5126129;27;4795;-81
2023/01/02 12:31:44;;;;;;;;;;;;;;;5.32;71.24;100131.03;5130381;27;2183;-82
2023/01/02 12:34:10;;;;;;;;;;;;;;;5.25;71.52;100131.00;5135333;27;3931;-81
2023/01/02 12:36:37;;;;;;;;;;;;;;;5.30;71.61;100133.09;5117798;28;1910;-80
2023/01/02 12:39:03;;;;;;;;;;;;;;;5.29;71.39;100126.09;5122745;27;1797;-80
2023/01/02 12:41:30;;;;;;;;;;;;;;;5.15;71.99;100126.03;5119990;27;2318;-80
2023/01/02 12:43:56;;;;;;;;;;;;;;;5.31;71.44;100132.06;5118688;27;3839;-81
2023/01/02 12:46:23;;;;;;;;;;;;;;;5.33;71.38;100125.53;5124090;27;3294;-81
2023/01/02 12:48:49;;;;;;;;;;;;;;;5.25;71.45;100123.00;5122260;27;1925;-82
2023/01/02 12:51:16;;;;;;;;;;;;;;;5.29;71.34;100118.91;5130666;27;2115;-83
2023/01/02 12:53:43;;;;;;;;;;;;;;;5.32;71.42;100131.03;5122264;27;2251;-83
2023/01/02 12:56:10;;;;;;;;;;;;;;;5.29;71.58;100123.44;5128418;27;1910;-83